Time;durP1;ratioP1;P1;durP2;ratioP2;P2;SDS_P1;SDS_P2;PMS_P1;PMS_P2;Temp;Humidity;BMP_temperature;BMP_pressure;BME280_temperature;BME280_humidity;BME280_pressure;Samples;Min_cycle;Max_cycle;Signal;HPM_P1;HPM_P2
2022/07/03 00:02:02;;;;;;;;;;;22.80;60.90;;;;;;5051738;28;19923;-73
2022/07/03 00:04:27;;;;;;;;;;;22.80;60.90;;;;;;5050140;28;19970;-73
2022/07/03 00:06:54;;;;;;;;;;;22.70;60.90;;;;;;5046726;28;20384;-73
2022/07/03 00:09:20;;;;;;;;;;;22.70;61.00;;;;;;5047275;28;19951;-73
2022/07/03 00:11:45;;;;;;;;;;;22.60;61.00;;;;;;5047210;28;19956;-73
2022/07/03 00:14:11;;;;;;;;;;;22.60;61.10;;;;;;5055480;28;20021;-73
2022/07/03 00:16:36;;;;;;;;;;;22.60;61.00;;;;;;5065758;28;19924;-73
2022/07/03 00:19:02;;;;;;;;;;;22.60;61.10;;;;;;5065946;28;20169;-73
2022/07/03 00:21:29;;;;;;;;;;;22.50;61.10;;;;;;5047904;28;19913;-73
2022/07/03 00:24:07;;;;;;;;;;;22.50;61.10;;;;;;5047064;28;20011;-73
2022/07/03 00:26:34;;;;;;;;;;;22.50;61.30;;;;;;5047163;28;19912;-73
2022/07/03 00:29:00;;;;;;;;;;;22.40;61.30;;;;;;5056750;28;20381;-73
2022/07/03 00:31:27;;;;;;;;;;;22.40;61.50;;;;;;5065703;28;19912;-73
2022/07/03 00:33:54;;;;;;;;;;;22.40;61.30;;;;;;5059667;28;20396;-73
2022/07/03 00:36:20;;;;;;;;;;;22.40;61.50;;;;;;5046676;28;19912;-73
2022/07/03 00:38:46;;;;;;;;;;;22.30;61.60;;;;;;5060839;28;19913;-73
2022/07/03 00:41:24;;;;;;;;;;;22.30;61.60;;;;;;5065088;28;19996;-73
2022/07/03 00:43:49;;;;;;;;;;;22.30;61.70;;;;;;5064746;28;19916;-73
2022/07/03 00:46:17;;;;;;;;;;;22.20;61.70;;;;;;5046937;28;19928;-73
2022/07/03 00:48:45;;;;;;;;;;;22.20;61.60;;;;;;5047702;28;20282;-73
2022/07/03 00:51:13;;;;;;;;;;;22.20;61.80;;;;;;5052326;28;19916;-73
2022/07/03 00:53:41;;;;;;;;;;;22.20;61.80;;;;;;5046692;28;19996;-73
2022/07/03 00:56:11;;;;;;;;;;;22.20;61.90;;;;;;5046135;28;19916;-73
2022/07/03 00:58:37;;;;;;;;;;;22.10;61.80;;;;;;5052966;28;20693;-73
2022/07/03 01:01:02;;;;;;;;;;;22.10;62.00;;;;;;5065180;28;20483;-73
2022/07/03 01:03:32;;;;;;;;;;;22.10;61.80;;;;;;5052789;28;19992;-73
2022/07/03 01:06:02;;;;;;;;;;;22.00;61.90;;;;;;5052424;28;19913;-73
2022/07/03 01:08:36;;;;;;;;;;;22.00;62.00;;;;;;5046539;28;20490;-73
2022/07/03 01:11:21;;;;;;;;;;;22.00;62.00;;;;;;5059664;28;19912;-73
2022/07/03 01:13:59;;;;;;;;;;;22.00;62.00;;;;;;5060160;28;19960;-73
2022/07/03 01:16:30;;;;;;;;;;;21.90;62.20;;;;;;5050302;28;19925;-73
2022/07/03 01:19:16;;;;;;;;;;;21.90;62.00;;;;;;5046629;28;19913;-73
2022/07/03 01:21:46;;;;;;;;;;;21.90;62.20;;;;;;5064162;28;20732;-73
2022/07/03 01:24:15;;;;;;;;;;;21.90;62.20;;;;;;5064484;28;19916;-73
2022/07/03 01:26:41;;;;;;;;;;;21.90;62.40;;;;;;5062462;28;20533;-73
2022/07/03 01:29:08;;;;;;;;;;;21.80;62.40;;;;;;5064678;28;19995;-73
2022/07/03 01:31:33;;;;;;;;;;;21.80;62.30;;;;;;5051232;28;19917;-73
2022/07/03 01:33:59;;;;;;;;;;;21.70;62.40;;;;;;5046695;28;19982;-73
2022/07/03 01:36:28;;;;;;;;;;;21.70;62.40;;;;;;5045651;28;19948;-73
2022/07/03 01:38:55;;;;;;;;;;;21.70;62.60;;;;;;5050695;28;19908;-73
2022/07/03 01:41:24;;;;;;;;;;;21.60;62.50;;;;;;5044658;28;19919;-73
2022/07/03 01:43:52;;;;;;;;;;;21.60;63.30;;;;;;5056831;28;19918;-73
2022/07/03 01:46:18;;;;;;;;;;;21.60;62.60;;;;;;5044273;28;19921;-73
2022/07/03 01:48:44;;;;;;;;;;;21.60;62.70;;;;;;5045959;28;19943;-73
2022/07/03 01:51:13;;;;;;;;;;;21.60;62.80;;;;;;5045797;28;19919;-73
2022/07/03 01:53:42;;;;;;;;;;;21.50;62.50;;;;;;5045623;28;19913;-73
2022/07/03 01:56:09;;;;;;;;;;;21.50;62.80;;;;;;5045459;28;19935;-73
2022/07/03 01:58:34;;;;;;;;;;;21.50;62.90;;;;;;5047452;28;20823;-73
2022/07/03 02:01:20;;;;;;;;;;;21.40;62.90;;;;;;5045300;28;19913;-73
2022/07/03 02:04:01;;;;;;;;;;;21.40;62.90;;;;;;5045546;28;20366;-73
2022/07/03 02:06:26;;;;;;;;;;;21.40;63.00;;;;;;5061743;28;19912;-73
2022/07/03 02:09:01;;;;;;;;;;;21.30;63.00;;;;;;5063460;28;20022;-73
2022/07/03 02:11:28;;;;;;;;;;;21.30;63.10;;;;;;5063795;28;19939;-73
2022/07/03 02:13:53;;;;;;;;;;;21.30;63.20;;;;;;5054904;28;19922;-73
2022/07/03 02:16:20;;;;;;;;;;;21.30;63.20;;;;;;5063164;28;20371;-73
2022/07/03 02:18:49;;;;;;;;;;;21.30;63.20;;;;;;5063893;28;19913;-73
2022/07/03 02:21:16;;;;;;;;;;;21.20;63.10;;;;;;5062156;28;20269;-73
2022/07/03 02:23:57;;;;;;;;;;;21.20;63.20;;;;;;5063648;28;19909;-73
2022/07/03 02:26:27;;;;;;;;;;;21.20;63.10;;;;;;5063149;28;20024;-73
2022/07/03 02:28:55;;;;;;;;;;;21.20;63.00;;;;;;5055499;28;19917;-73
2022/07/03 02:31:23;;;;;;;;;;;21.20;63.30;;;;;;5044778;28;19919;-73
2022/07/03 02:33:50;;;;;;;;;;;21.10;63.40;;;;;;5045392;28;19958;-73
2022/07/03 02:36:16;;;;;;;;;;;21.10;63.20;;;;;;5043949;28;19986;-73
2022/07/03 02:38:44;;;;;;;;;;;21.10;63.40;;;;;;5049554;28;20380;-73
2022/07/03 02:41:15;;;;;;;;;;;21.10;63.30;;;;;;5046164;28;19948;-73
2022/07/03 02:43:49;;;;;;;;;;;21.00;63.40;;;;;;5049545;28;19913;-73
2022/07/03 02:49:26;;;;;;;;;;;21.00;63.70;;;;;;5063817;28;19966;-73
2022/07/03 02:52:12;;;;;;;;;;;21.00;63.70;;;;;;5045364;28;19952;-73
2022/07/03 02:54:47;;;;;;;;;;;21.00;63.80;;;;;;5053675;28;19986;-73
2022/07/03 02:57:19;;;;;;;;;;;20.90;63.50;;;;;;5048483;28;19917;-73
2022/07/03 02:59:57;;;;;;;;;;;20.90;63.70;;;;;;5060488;28;20403;-73
2022/07/03 03:02:22;;;;;;;;;;;20.90;63.70;;;;;;5063381;28;19919;-73
2022/07/03 03:04:59;;;;;;;;;;;20.90;64.00;;;;;;5063014;28;19913;-73
2022/07/03 03:07:33;;;;;;;;;;;20.80;63.90;;;;;;5063310;28;19942;-73
2022/07/03 03:09:59;;;;;;;;;;;20.80;63.90;;;;;;5053773;28;20476;-73
2022/07/03 03:12:29;;;;;;;;;;;20.80;64.00;;;;;;5045010;28;19999;-73
2022/07/03 03:15:00;;;;;;;;;;;20.80;64.00;;;;;;5062239;28;19912;-73
2022/07/03 03:17:26;;;;;;;;;;;20.70;64.10;;;;;;5047333;28;20023;-73
2022/07/03 03:19:54;;;;;;;;;;;20.70;64.30;;;;;;5062693;28;19912;-73
2022/07/03 03:22:38;;;;;;;;;;;20.70;64.10;;;;;;5067118;28;19915;-73
2022/07/03 03:25:04;;;;;;;;;;;20.70;64.30;;;;;;5052612;28;19916;-73
2022/07/03 03:27:29;;;;;;;;;;;20.60;64.20;;;;;;5048514;28;19909;-73
2022/07/03 03:29:55;;;;;;;;;;;20.60;64.40;;;;;;5064836;28;20410;-73
2022/07/03 03:32:22;;;;;;;;;;;20.60;64.30;;;;;;5066876;28;19984;-73
2022/07/03 03:34:49;;;;;;;;;;;20.60;64.40;;;;;;5066390;28;20046;-73
2022/07/03 03:37:14;;;;;;;;;;;20.50;64.40;;;;;;5065249;28;19927;-73
2022/07/03 03:39:40;;;;;;;;;;;20.50;64.70;;;;;;5052884;28;19917;-73
2022/07/03 03:42:05;;;;;;;;;;;20.50;64.50;;;;;;5048314;28;19917;-73
2022/07/03 03:44:31;;;;;;;;;;;20.50;64.70;;;;;;5057500;28;19960;-73
2022/07/03 03:46:56;;;;;;;;;;;20.50;64.90;;;;;;5056278;28;19983;-73
2022/07/03 03:49:22;;;;;;;;;;;20.50;64.90;;;;;;5056853;28;19952;-73
2022/07/03 03:51:48;;;;;;;;;;;20.50;65.00;;;;;;5056724;28;20328;-73
2022/07/03 03:54:13;;;;;;;;;;;20.50;64.70;;;;;;5047890;28;19917;-73
2022/07/03 03:56:39;;;;;;;;;;;20.40;64.80;;;;;;5047467;28;20044;-73
2022/07/03 03:59:04;;;;;;;;;;;20.40;65.30;;;;;;5057754;28;20384;-73
2022/07/03 04:01:30;;;;;;;;;;;20.40;65.10;;;;;;5066126;28;19958;-73
2022/07/03 04:03:55;;;;;;;;;;;20.40;65.10;;;;;;5062222;28;19917;-73
2022/07/03 04:06:21;;;;;;;;;;;20.40;65.10;;;;;;5052265;28;19917;-73
2022/07/03 04:08:46;;;;;;;;;;;20.40;65.00;;;;;;5048770;28;19913;-73
2022/07/03 04:11:12;;;;;;;;;;;20.40;65.20;;;;;;5053135;28;19952;-73
2022/07/03 04:13:37;;;;;;;;;;;20.40;65.10;;;;;;5051175;28;19909;-73
2022/07/03 04:16:03;;;;;;;;;;;20.40;65.20;;;;;;5065542;28;20621;-73
2022/07/03 04:18:28;;;;;;;;;;;20.40;65.10;;;;;;5060919;28;19974;-73
2022/07/03 04:20:54;;;;;;;;;;;20.30;65.40;;;;;;5047350;28;20027;-73
2022/07/03 04:23:22;;;;;;;;;;;20.30;65.30;;;;;;5046900;28;19912;-73
2022/07/03 04:25:47;;;;;;;;;;;20.30;65.40;;;;;;5047120;28;19982;-73
2022/07/03 04:28:13;;;;;;;;;;;20.30;65.20;;;;;;5049793;28;19916;-73
2022/07/03 04:30:38;;;;;;;;;;;20.30;65.30;;;;;;5064234;28;19982;-73
2022/07/03 04:33:04;;;;;;;;;;;20.30;65.40;;;;;;5063673;28;19970;-73
2022/07/03 04:35:30;;;;;;;;;;;20.30;65.50;;;;;;5065419;28;20767;-73
2022/07/03 04:37:55;;;;;;;;;;;20.30;65.50;;;;;;5065036;28;20323;-73
2022/07/03 04:40:21;;;;;;;;;;;20.30;65.60;;;;;;5047160;28;20356;-73
2022/07/03 04:42:46;;;;;;;;;;;20.30;65.50;;;;;;5049244;28;19920;-73
2022/07/03 04:45:12;;;;;;;;;;;20.30;65.50;;;;;;5062497;28;20405;-73
2022/07/03 04:47:37;;;;;;;;;;;20.30;65.50;;;;;;5065040;28;19912;-73
2022/07/03 04:50:03;;;;;;;;;;;20.40;65.70;;;;;;5065050;28;20546;-73
2022/07/03 04:52:28;;;;;;;;;;;20.30;65.70;;;;;;5063721;28;19985;-73
2022/07/03 04:54:54;;;;;;;;;;;20.40;65.70;;;;;;5046330;28;19916;-73
2022/07/03 04:57:19;;;;;;;;;;;20.40;65.70;;;;;;5077925;28;19920;-73
2022/07/03 04:59:46;;;;;;;;;;;20.40;65.90;;;;;;5074054;28;19997;-73
2022/07/03 05:02:12;;;;;;;;;;;20.40;65.80;;;;;;5064802;28;19989;-73
2022/07/03 05:04:37;;;;;;;;;;;20.40;66.00;;;;;;5064706;28;20035;-73
2022/07/03 05:07:03;;;;;;;;;;;20.40;65.90;;;;;;5053425;28;19916;-73
2022/07/03 05:09:28;;;;;;;;;;;20.40;66.00;;;;;;5046307;28;19919;-73
2022/07/03 05:11:54;;;;;;;;;;;20.40;66.00;;;;;;5047265;28;19956;-73
2022/07/03 05:14:19;;;;;;;;;;;20.50;66.00;;;;;;5055096;28;19908;-73
2022/07/03 05:16:45;;;;;;;;;;;20.40;66.10;;;;;;5062888;28;20604;-73
2022/07/03 05:19:10;;;;;;;;;;;20.40;66.00;;;;;;5064354;28;19958;-73
2022/07/03 05:21:36;;;;;;;;;;;20.40;66.00;;;;;;5063892;28;19913;-73
2022/07/03 05:24:02;;;;;;;;;;;20.40;66.00;;;;;;5046132;28;19917;-73
2022/07/03 05:26:28;;;;;;;;;;;20.40;66.10;;;;;;5045287;28;19912;-73
2022/07/03 05:28:53;;;;;;;;;;;20.40;66.20;;;;;;5073052;28;19919;-73
2022/07/03 05:31:19;;;;;;;;;;;20.40;66.30;;;;;;5063967;28;19913;-73
2022/07/03 05:33:44;;;;;;;;;;;20.40;66.20;;;;;;5063690;28;19918;-73
2022/07/03 05:36:10;;;;;;;;;;;20.40;66.30;;;;;;5061999;28;19916;-73
2022/07/03 05:41:19;;;;;;;;;;;20.40;66.30;;;;;;5060765;28;19954;-73
2022/07/03 05:43:45;;;;;;;;;;;20.40;65.80;;;;;;5062414;28;19947;-73
2022/07/03 05:46:10;;;;;;;;;;;20.40;66.30;;;;;;5063669;28;20352;-73
2022/07/03 05:48:36;;;;;;;;;;;20.40;65.70;;;;;;5063931;28;19920;-73
2022/07/03 05:51:02;;;;;;;;;;;20.30;65.50;;;;;;5062233;28;19923;-73
2022/07/03 05:53:27;;;;;;;;;;;20.30;65.90;;;;;;5063757;28;19969;-73
2022/07/03 05:55:53;;;;;;;;;;;20.30;66.10;;;;;;5063681;28;20292;-73
2022/07/03 05:58:18;;;;;;;;;;;20.30;66.10;;;;;;5061622;28;19923;-73
2022/07/03 06:00:44;;;;;;;;;;;20.40;66.00;;;;;;5045517;28;20011;-73
2022/07/03 06:03:09;;;;;;;;;;;20.30;66.00;;;;;;5043813;28;19920;-73
2022/07/03 06:05:35;;;;;;;;;;;20.30;65.90;;;;;;5045405;28;20352;-73
2022/07/03 06:08:01;;;;;;;;;;;20.40;65.60;;;;;;5047810;28;19921;-73
2022/07/03 06:10:27;;;;;;;;;;;20.30;65.80;;;;;;5050547;28;19917;-73
2022/07/03 06:12:53;;;;;;;;;;;20.40;65.80;;;;;;5063795;28;19918;-73
2022/07/03 06:15:18;;;;;;;;;;;20.30;65.70;;;;;;5063486;28;19913;-73
2022/07/03 06:17:44;;;;;;;;;;;20.30;65.70;;;;;;5063251;28;20116;-73
2022/07/03 06:20:10;;;;;;;;;;;20.30;65.60;;;;;;5062189;28;19916;-73
2022/07/03 06:22:35;;;;;;;;;;;20.40;65.80;;;;;;5062908;28;19917;-73
2022/07/03 06:25:01;;;;;;;;;;;20.40;65.70;;;;;;5051731;28;20464;-73
2022/07/03 06:27:26;;;;;;;;;;;20.40;65.50;;;;;;5043492;28;19916;-73
2022/07/03 06:29:52;;;;;;;;;;;20.40;65.50;;;;;;5042642;28;19913;-73
2022/07/03 06:32:18;;;;;;;;;;;20.40;65.60;;;;;;5043079;28;20630;-73
2022/07/03 06:34:43;;;;;;;;;;;20.40;65.40;;;;;;5043597;28;19920;-73
2022/07/03 06:37:09;;;;;;;;;;;20.40;65.50;;;;;;5043010;28;19920;-73
2022/07/03 06:39:35;;;;;;;;;;;20.40;65.40;;;;;;5057921;28;19912;-73
2022/07/03 06:42:00;;;;;;;;;;;20.40;65.50;;;;;;5047934;28;20429;-72
2022/07/03 06:44:26;;;;;;;;;;;20.40;65.40;;;;;;5053179;28;19919;-74
2022/07/03 06:46:52;;;;;;;;;;;20.40;65.40;;;;;;5051249;28;19913;-78
2022/07/03 06:49:19;;;;;;;;;;;20.50;65.30;;;;;;5052511;28;20011;-77
2022/07/03 06:51:44;;;;;;;;;;;20.50;65.40;;;;;;5049900;28;20012;-77
2022/07/03 06:54:10;;;;;;;;;;;20.50;65.50;;;;;;5057353;28;20376;-78
2022/07/03 06:56:35;;;;;;;;;;;20.50;65.40;;;;;;5060893;28;19912;-78
2022/07/03 06:59:01;;;;;;;;;;;20.50;65.40;;;;;;5062571;28;19915;-77
2022/07/03 07:01:26;;;;;;;;;;;20.60;65.40;;;;;;5063041;28;20411;-78
2022/07/03 07:03:52;;;;;;;;;;;20.50;65.30;;;;;;5061903;28;19934;-77
2022/07/03 07:06:18;;;;;;;;;;;20.50;65.40;;;;;;5061324;28;19935;-78
2022/07/03 07:08:43;;;;;;;;;;;20.50;65.20;;;;;;5056747;28;19919;-76
2022/07/03 07:11:09;;;;;;;;;;;20.50;65.30;;;;;;5059729;28;20137;-77
2022/07/03 07:13:35;;;;;;;;;;;20.60;65.20;;;;;;5057055;28;19927;-77
2022/07/03 07:16:00;;;;;;;;;;;20.60;65.30;;;;;;5059479;28;19959;-77
2022/07/03 07:18:26;;;;;;;;;;;20.60;65.20;;;;;;5052883;28;19923;-74
2022/07/03 07:20:52;;;;;;;;;;;20.60;65.10;;;;;;5050743;28;19912;-76
2022/07/03 07:23:17;;;;;;;;;;;20.60;65.10;;;;;;5066376;28;19917;-75
2022/07/03 07:25:43;;;;;;;;;;;20.60;65.20;;;;;;5066839;28;19920;-75
2022/07/03 07:28:08;;;;;;;;;;;20.60;65.00;;;;;;5066044;28;19920;-76
2022/07/03 07:30:34;;;;;;;;;;;20.70;65.00;;;;;;5058908;28;19927;-76
2022/07/03 07:32:59;;;;;;;;;;;20.70;65.00;;;;;;5067150;28;20050;-76
2022/07/03 07:35:25;;;;;;;;;;;20.70;65.00;;;;;;5066421;28;20023;-76
2022/07/03 07:37:50;;;;;;;;;;;20.70;64.80;;;;;;5066172;28;19922;-77
2022/07/03 07:40:16;;;;;;;;;;;20.80;64.90;;;;;;5048275;28;20441;-75
2022/07/03 07:42:42;;;;;;;;;;;20.70;64.80;;;;;;5066517;28;19912;-74
2022/07/03 07:45:08;;;;;;;;;;;20.80;64.70;;;;;;5066667;28;20274;-76
2022/07/03 07:47:34;;;;;;;;;;;20.80;64.70;;;;;;5060558;28;20007;-75
2022/07/03 07:49:59;;;;;;;;;;;20.80;64.60;;;;;;5047886;28;19931;-75
2022/07/03 07:52:25;;;;;;;;;;;20.80;64.60;;;;;;5048002;28;20547;-75
2022/07/03 07:54:50;;;;;;;;;;;20.90;64.40;;;;;;5048211;28;19913;-74
2022/07/03 07:57:16;;;;;;;;;;;20.90;64.40;;;;;;5048791;28;19917;-74
2022/07/03 07:59:41;;;;;;;;;;;20.90;64.40;;;;;;5064605;28;19936;-75
2022/07/03 08:07:35;;;;;;;;;;;21.00;64.30;;;;;;5060676;28;19922;-74
2022/07/03 08:10:01;;;;;;;;;;;21.00;64.30;;;;;;5066374;28;20612;-75
2022/07/03 08:12:26;;;;;;;;;;;21.00;64.20;;;;;;5066303;28;19969;-74
2022/07/03 08:14:52;;;;;;;;;;;21.00;64.20;;;;;;5060635;28;19974;-74
2022/07/03 08:17:17;;;;;;;;;;;21.10;64.20;;;;;;5046357;28;19924;-74
2022/07/03 08:19:43;;;;;;;;;;;21.10;64.20;;;;;;5064126;28;19955;-74
2022/07/03 08:22:08;;;;;;;;;;;21.10;64.10;;;;;;5064471;28;19909;-74
2022/07/03 08:24:34;;;;;;;;;;;21.10;64.10;;;;;;5065963;28;19920;-74
2022/07/03 08:27:00;;;;;;;;;;;21.10;63.90;;;;;;5065790;28;19915;-74
2022/07/03 08:29:27;;;;;;;;;;;21.20;63.90;;;;;;5053665;28;19956;-75
2022/07/03 08:31:53;;;;;;;;;;;21.20;63.90;;;;;;5046143;28;20372;-74
2022/07/03 08:34:18;;;;;;;;;;;21.20;64.10;;;;;;5048122;28;19913;-75
2022/07/03 08:36:44;;;;;;;;;;;21.20;63.80;;;;;;5045673;28;19917;-75
2022/07/03 08:39:09;;;;;;;;;;;21.20;63.80;;;;;;5051610;28;19994;-75
2022/07/03 08:41:39;;;;;;;;;;;21.30;63.90;;;;;;5047656;28;19913;-75
2022/07/03 08:44:05;;;;;;;;;;;21.30;64.00;;;;;;5054848;28;19916;-74
2022/07/03 08:46:32;;;;;;;;;;;21.30;63.70;;;;;;5065156;28;19927;-75
2022/07/03 08:49:01;;;;;;;;;;;21.30;63.70;;;;;;5065380;28;19990;-74
2022/07/03 08:51:27;;;;;;;;;;;21.30;63.60;;;;;;5061638;28;19917;-75
2022/07/03 08:53:54;;;;;;;;;;;21.40;63.60;;;;;;5049813;28;19913;-75
2022/07/03 08:56:20;;;;;;;;;;;21.50;63.60;;;;;;5050294;28;20274;-75
2022/07/03 08:58:46;;;;;;;;;;;21.50;63.50;;;;;;5054699;28;20015;-75
2022/07/03 09:01:14;;;;;;;;;;;21.50;63.40;;;;;;5060459;28;20319;-75
2022/07/03 09:03:39;;;;;;;;;;;21.60;63.60;;;;;;5046410;28;19948;-75
2022/07/03 09:06:05;;;;;;;;;;;21.60;63.40;;;;;;5045024;28;20008;-75
2022/07/03 09:08:31;;;;;;;;;;;21.60;63.50;;;;;;5046175;28;19917;-75
2022/07/03 09:10:57;;;;;;;;;;;21.60;63.40;;;;;;5045384;28;20445;-75
2022/07/03 09:13:23;;;;;;;;;;;21.60;63.20;;;;;;5047751;28;19919;-75
2022/07/03 09:15:48;;;;;;;;;;;21.70;63.30;;;;;;5063089;28;20003;-75
2022/07/03 09:18:14;;;;;;;;;;;21.80;63.30;;;;;;5062364;28;19921;-76
2022/07/03 09:20:40;;;;;;;;;;;21.70;63.20;;;;;;5064123;28;20361;-75
2022/07/03 09:23:09;;;;;;;;;;;21.70;63.10;;;;;;5064016;28;19912;-75
2022/07/03 09:25:34;;;;;;;;;;;21.80;63.10;;;;;;5061790;28;20580;-76
2022/07/03 09:28:00;;;;;;;;;;;21.90;63.10;;;;;;5063572;28;19912;-76
2022/07/03 09:30:26;;;;;;;;;;;21.90;63.00;;;;;;5063952;28;19919;-76
2022/07/03 09:32:52;;;;;;;;;;;21.90;63.00;;;;;;5063989;28;19913;-75
2022/07/03 09:35:25;;;;;;;;;;;22.00;62.80;;;;;;5061729;28;19909;-75
2022/07/03 09:37:58;;;;;;;;;;;22.00;62.90;;;;;;5049102;28;19917;-76
2022/07/03 09:40:24;;;;;;;;;;;22.10;62.80;;;;;;5049903;28;19916;-76
2022/07/03 09:43:07;;;;;;;;;;;22.10;62.70;;;;;;5044810;28;20006;-76
2022/07/03 09:46:08;;;;;;;;;;;22.20;62.60;;;;;;5049362;28;19917;-76
2022/07/03 09:48:33;;;;;;;;;;;22.20;63.20;;;;;;5040565;28;19913;-76
2022/07/03 09:51:19;;;;;;;;;;;22.20;62.50;;;;;;5058898;28;20322;-76
2022/07/03 09:53:46;;;;;;;;;;;22.30;62.50;;;;;;5061792;28;19916;-76
2022/07/03 09:56:11;;;;;;;;;;;22.40;62.50;;;;;;5063371;28;20379;-76
2022/07/03 09:58:38;;;;;;;;;;;22.40;62.40;;;;;;5054638;28;19917;-75
2022/07/03 10:01:17;;;;;;;;;;;22.50;62.40;;;;;;5044433;28;19920;-76
2022/07/03 10:03:42;;;;;;;;;;;22.50;62.90;;;;;;5045588;28;19913;-76
2022/07/03 10:06:08;;;;;;;;;;;22.60;62.10;;;;;;5045889;28;19925;-76
2022/07/03 10:08:33;;;;;;;;;;;22.70;62.00;;;;;;5045785;28;20051;-76
2022/07/03 10:10:59;;;;;;;;;;;22.70;62.00;;;;;;5049408;28;19917;-76
2022/07/03 10:13:25;;;;;;;;;;;22.80;62.70;;;;;;5053683;28;20297;-76
2022/07/03 10:15:51;;;;;;;;;;;22.80;61.80;;;;;;5049660;28;19913;-76
2022/07/03 10:18:18;;;;;;;;;;;22.90;61.90;;;;;;5063773;28;19916;-77
2022/07/03 10:20:48;;;;;;;;;;;23.00;61.90;;;;;;5059011;28;20673;-77
2022/07/03 10:23:20;;;;;;;;;;;23.00;61.80;;;;;;5058640;28;19916;-76
2022/07/03 10:25:46;;;;;;;;;;;23.10;61.80;;;;;;5053324;28;20007;-77
2022/07/03 10:28:13;;;;;;;;;;;23.10;61.70;;;;;;5063377;28;19912;-77
2022/07/03 10:30:39;;;;;;;;;;;23.20;61.60;;;;;;5056248;28;19954;-76
2022/07/03 10:33:05;;;;;;;;;;;23.30;61.70;;;;;;5044397;28;19920;-77
2022/07/03 10:35:30;;;;;;;;;;;23.30;61.80;;;;;;5044367;28;19912;-76
2022/07/03 10:38:01;;;;;;;;;;;23.40;61.80;;;;;;5048618;28;20093;-77
2022/07/03 10:46:13;;;;;;;;;;;23.70;61.50;;;;;;5045263;28;19920;-76
2022/07/03 10:48:58;;;;;;;;;;;23.80;61.50;;;;;;5056279;28;20000;-77
2022/07/03 10:51:23;;;;;;;;;;;23.90;61.90;;;;;;5062999;28;20042;-76
2022/07/03 10:53:49;;;;;;;;;;;24.00;61.60;;;;;;5063599;28;20486;-76
2022/07/03 10:56:15;;;;;;;;;;;24.10;61.60;;;;;;5054975;28;19972;-75
2022/07/03 10:58:56;;;;;;;;;;;24.20;61.50;;;;;;5049386;28;19916;-76
2022/07/03 11:01:27;;;;;;;;;;;24.30;61.70;;;;;;5049743;28;19919;-76
2022/07/03 11:03:57;;;;;;;;;;;24.40;61.60;;;;;;5043612;28;19951;-76
2022/07/03 11:06:42;;;;;;;;;;;24.50;61.40;;;;;;5043056;28;19939;-75
2022/07/03 11:09:09;;;;;;;;;;;24.70;61.30;;;;;;5044056;28;19924;-76
2022/07/03 11:11:55;;;;;;;;;;;24.70;61.30;;;;;;5044120;28;19955;-76
2022/07/03 11:14:21;;;;;;;;;;;24.90;60.90;;;;;;5058206;28;20445;-74
2022/07/03 11:16:47;;;;;;;;;;;25.00;61.00;;;;;;5048044;28;19979;-76
2022/07/03 11:19:13;;;;;;;;;;;25.10;61.00;;;;;;5046451;28;19920;-76
2022/07/03 11:21:42;;;;;;;;;;;25.20;60.90;;;;;;5043798;28;19912;-76
2022/07/03 11:24:07;;;;;;;;;;;25.10;60.90;;;;;;5043665;28;19908;-76
2022/07/03 11:26:33;;;;;;;;;;;25.10;61.20;;;;;;5043233;28;20011;-76
2022/07/03 11:28:58;;;;;;;;;;;25.20;60.60;;;;;;5046488;28;19913;-76
2022/07/03 11:31:25;;;;;;;;;;;25.40;61.50;;;;;;5049147;28;19917;-76
2022/07/03 11:33:50;;;;;;;;;;;25.40;61.20;;;;;;5043848;28;19909;-75
2022/07/03 11:36:16;;;;;;;;;;;25.40;61.00;;;;;;5062206;28;19912;-76
2022/07/03 11:38:45;;;;;;;;;;;25.60;61.20;;;;;;5048314;28;19990;-75
2022/07/03 11:41:12;;;;;;;;;;;25.60;61.20;;;;;;5062394;28;19912;-76
2022/07/03 11:43:45;;;;;;;;;;;25.70;60.70;;;;;;5065345;28;19908;-76
2022/07/03 11:46:16;;;;;;;;;;;25.80;61.10;;;;;;5066173;28;19921;-75
2022/07/03 11:48:42;;;;;;;;;;;25.70;61.20;;;;;;5058380;28;19912;-76
2022/07/03 11:51:07;;;;;;;;;;;25.70;61.00;;;;;;5064828;28;20474;-76
2022/07/03 11:53:34;;;;;;;;;;;25.80;61.50;;;;;;5061819;28;20443;-76
2022/07/03 11:56:03;;;;;;;;;;;25.80;60.80;;;;;;5066007;28;19940;-75
2022/07/03 11:58:42;;;;;;;;;;;25.80;61.20;;;;;;5065122;28;19916;-76
2022/07/03 12:01:08;;;;;;;;;;;25.90;60.00;;;;;;5047290;28;19916;-76
2022/07/03 12:03:33;;;;;;;;;;;25.90;61.10;;;;;;5047180;28;19915;-76
2022/07/03 12:05:59;;;;;;;;;;;26.00;60.10;;;;;;5046468;28;19920;-76
2022/07/03 12:08:32;;;;;;;;;;;26.10;61.00;;;;;;5055619;28;19943;-76
2022/07/03 12:11:02;;;;;;;;;;;26.10;60.60;;;;;;5065303;28;20011;-76
2022/07/03 12:13:30;;;;;;;;;;;26.30;60.60;;;;;;5063800;28;20102;-75
2022/07/03 12:16:01;;;;;;;;;;;26.30;60.10;;;;;;5056972;28;20118;-75
2022/07/03 12:18:26;;;;;;;;;;;26.40;60.60;;;;;;5047018;28;19917;-75
2022/07/03 12:20:51;;;;;;;;;;;26.40;60.60;;;;;;5047048;28;19919;-76
2022/07/03 12:23:17;;;;;;;;;;;26.40;60.40;;;;;;5046705;28;19974;-76
2022/07/03 12:25:43;;;;;;;;;;;26.50;59.30;;;;;;5046593;28;20366;-75
2022/07/03 12:28:09;;;;;;;;;;;26.60;59.70;;;;;;5052144;28;19978;-76
2022/07/03 12:30:35;;;;;;;;;;;26.60;59.80;;;;;;5051520;28;19916;-76
2022/07/03 12:33:01;;;;;;;;;;;26.70;59.80;;;;;;5063318;28;21357;-76
2022/07/03 12:35:27;;;;;;;;;;;26.80;59.60;;;;;;5046011;28;19971;-76
2022/07/03 12:37:52;;;;;;;;;;;26.90;60.10;;;;;;5057935;28;20009;-75
2022/07/03 12:40:18;;;;;;;;;;;27.00;60.40;;;;;;5062925;28;19913;-75
2022/07/03 12:42:48;;;;;;;;;;;27.00;59.90;;;;;;5065189;28;19916;-74
2022/07/03 12:45:15;;;;;;;;;;;27.00;59.30;;;;;;5063504;28;19982;-75
2022/07/03 12:47:40;;;;;;;;;;;27.10;60.00;;;;;;5047281;28;19920;-73
2022/07/03 12:50:06;;;;;;;;;;;27.20;60.00;;;;;;5047140;28;19913;-76
2022/07/03 12:52:33;;;;;;;;;;;27.20;59.70;;;;;;5064234;28;20001;-74
2022/07/03 12:54:59;;;;;;;;;;;27.20;60.20;;;;;;5065115;28;19912;-73
2022/07/03 13:00:10;;;;;;;;;;;27.20;58.00;;;;;;5058604;28;20481;-79
2022/07/03 13:02:39;;;;;;;;;;;27.30;58.60;;;;;;5046674;28;19996;-76
2022/07/03 13:05:14;;;;;;;;;;;27.40;59.60;;;;;;5056034;28;19974;-80
2022/07/03 13:07:40;;;;;;;;;;;27.50;59.40;;;;;;5064455;28;20502;-74
2022/07/03 13:10:06;;;;;;;;;;;27.50;59.50;;;;;;5050706;28;20772;-73
2022/07/03 13:12:32;;;;;;;;;;;27.50;58.70;;;;;;5065774;28;19912;-76
2022/07/03 13:15:01;;;;;;;;;;;27.60;59.20;;;;;;5059448;28;19913;-77
2022/07/03 13:17:45;;;;;;;;;;;27.60;56.70;;;;;;5053199;28;19967;-74
2022/07/03 13:20:11;;;;;;;;;;;27.70;58.70;;;;;;5061267;28;19972;-73
2022/07/03 13:22:36;;;;;;;;;;;27.80;57.50;;;;;;5064910;28;19985;-73
2022/07/03 13:25:02;;;;;;;;;;;27.90;57.90;;;;;;5056955;28;19935;-76
2022/07/03 13:27:27;;;;;;;;;;;28.00;57.60;;;;;;5045070;28;19912;-74
2022/07/03 13:29:53;;;;;;;;;;;27.90;57.80;;;;;;5058936;28;19947;-77
2022/07/03 13:32:18;;;;;;;;;;;28.00;56.00;;;;;;5044988;28;20663;-75
2022/07/03 13:34:44;;;;;;;;;;;28.00;56.50;;;;;;5052236;28;19917;-82
2022/07/03 13:37:09;;;;;;;;;;;28.10;54.60;;;;;;5059451;28;19939;-76
2022/07/03 13:39:35;;;;;;;;;;;28.10;57.20;;;;;;5050802;28;19912;-78
2022/07/03 13:42:04;;;;;;;;;;;28.20;57.40;;;;;;5080405;28;19912;-80
2022/07/03 13:44:29;;;;;;;;;;;28.10;54.10;;;;;;5056862;28;20010;-77
2022/07/03 13:46:55;;;;;;;;;;;28.10;54.90;;;;;;5063596;28;20007;-79
2022/07/03 13:49:20;;;;;;;;;;;28.10;57.20;;;;;;5046881;28;19916;-77
2022/07/03 13:51:46;;;;;;;;;;;28.10;56.70;;;;;;5046986;28;20453;-79
2022/07/03 13:54:11;;;;;;;;;;;28.20;57.00;;;;;;5055747;28;20492;-82
2022/07/03 13:56:37;;;;;;;;;;;28.20;56.40;;;;;;5054075;28;19921;-82
2022/07/03 13:59:02;;;;;;;;;;;28.20;57.30;;;;;;5064383;28;20320;-81
2022/07/03 14:01:28;;;;;;;;;;;28.20;55.80;;;;;;5062950;28;20003;-75
2022/07/03 14:03:54;;;;;;;;;;;28.20;55.10;;;;;;5062939;28;20050;-76
2022/07/03 14:06:19;;;;;;;;;;;28.10;56.00;;;;;;5062562;28;19999;-74
2022/07/03 14:08:45;;;;;;;;;;;28.00;57.40;;;;;;5063480;28;19959;-73
2022/07/03 14:11:10;;;;;;;;;;;28.00;56.00;;;;;;5057668;28;19919;-79
2022/07/03 14:13:36;;;;;;;;;;;28.10;56.30;;;;;;5057958;28;20056;-79
2022/07/03 14:16:01;;;;;;;;;;;28.20;55.70;;;;;;5063062;28;20626;-74
2022/07/03 14:18:27;;;;;;;;;;;28.10;55.10;;;;;;5063151;28;19917;-74
2022/07/03 14:20:52;;;;;;;;;;;28.00;56.20;;;;;;5064762;28;19950;-73
2022/07/03 14:23:18;;;;;;;;;;;27.90;54.20;;;;;;5064411;28;19912;-76
2022/07/03 14:25:43;;;;;;;;;;;27.90;55.80;;;;;;5063975;28;20296;-77
2022/07/03 14:33:37;;;;;;;;;;;28.10;54.00;;;;;;5044112;28;20682;-78
2022/07/03 14:36:03;;;;;;;;;;;28.20;54.10;;;;;;5041203;28;20004;-78
2022/07/03 14:38:29;;;;;;;;;;;28.20;54.50;;;;;;5050175;28;19916;-79
2022/07/03 14:40:55;;;;;;;;;;;28.20;55.30;;;;;;5056315;28;20010;-75
2022/07/03 14:43:20;;;;;;;;;;;28.10;54.80;;;;;;5061776;28;19913;-75